sensor_id;sensor_type;location;lat;lon;timestamp;P1;durP1;ratioP1;P2;durP2;ratioP2
16689;SDS011;8458;52.220;9.884;2022-09-02T00:01:24;0.47;;;0.33;;
16689;SDS011;8458;52.220;9.884;2022-09-02T00:03:54;0.40;;;0.40;;
16689;SDS011;8458;52.220;9.884;2022-09-02T00:06:22;1.10;;;0.50;;
16689;SDS011;8458;52.220;9.884;2022-09-02T00:08:48;0.80;;;0.30;;
16689;SDS011;8458;52.220;9.884;2022-09-02T00:11:16;0.40;;;0.40;;
16689;SDS011;8458;52.220;9.884;2022-09-02T00:13:45;0.40;;;0.40;;
16689;SDS011;8458;52.220;9.884;2022-09-02T00:16:13;0.57;;;0.40;;
16689;SDS011;8458;52.220;9.884;2022-09-02T00:18:41;0.50;;;0.40;;
16689;SDS011;8458;52.220;9.884;2022-09-02T00:21:09;0.40;;;0.40;;
16689;SDS011;8458;52.220;9.884;2022-09-02T00:23:36;0.80;;;0.50;;
16689;SDS011;8458;52.220;9.884;2022-09-02T00:26:02;1.07;;;0.40;;
16689;SDS011;8458;52.220;9.884;2022-09-02T00:28:29;0.63;;;0.40;;
16689;SDS011;8458;52.220;9.884;2022-09-02T00:30:56;1.17;;;0.40;;
16689;SDS011;8458;52.220;9.884;2022-09-02T00:33:24;0.40;;;0.40;;
16689;SDS011;8458;52.220;9.884;2022-09-02T00:35:50;0.40;;;0.30;;
16689;SDS011;8458;52.220;9.884;2022-09-02T00:38:17;0.63;;;0.40;;
16689;SDS011;8458;52.220;9.884;2022-09-02T00:40:44;0.97;;;0.43;;
16689;SDS011;8458;52.220;9.884;2022-09-02T00:43:21;0.33;;;0.33;;
16689;SDS011;8458;52.220;9.884;2022-09-02T00:45:50;0.90;;;0.30;;
16689;SDS011;8458;52.220;9.884;2022-09-02T00:48:18;1.33;;;0.40;;
16689;SDS011;8458;52.220;9.884;2022-09-02T00:50:46;1.10;;;0.37;;
16689;SDS011;8458;52.220;9.884;2022-09-02T00:53:12;0.40;;;0.37;;
16689;SDS011;8458;52.220;9.884;2022-09-02T00:55:40;0.83;;;0.37;;
16689;SDS011;8458;52.220;9.884;2022-09-02T00:58:13;0.53;;;0.40;;
16689;SDS011;8458;52.220;9.884;2022-09-02T01:00:42;0.40;;;0.40;;
16689;SDS011;8458;52.220;9.884;2022-09-02T01:03:11;0.53;;;0.40;;
16689;SDS011;8458;52.220;9.884;2022-09-02T01:05:40;1.10;;;0.40;;
16689;SDS011;8458;52.220;9.884;2022-09-02T01:08:10;0.40;;;0.40;;
16689;SDS011;8458;52.220;9.884;2022-09-02T01:10:39;1.53;;;0.50;;
16689;SDS011;8458;52.220;9.884;2022-09-02T01:13:07;0.80;;;0.50;;
16689;SDS011;8458;52.220;9.884;2022-09-02T01:15:37;2.00;;;0.40;;
16689;SDS011;8458;52.220;9.884;2022-09-02T01:18:08;0.50;;;0.50;;
16689;SDS011;8458;52.220;9.884;2022-09-02T01:20:38;0.40;;;0.40;;
16689;SDS011;8458;52.220;9.884;2022-09-02T01:23:06;1.27;;;0.50;;
16689;SDS011;8458;52.220;9.884;2022-09-02T01:25:33;0.60;;;0.50;;
16689;SDS011;8458;52.220;9.884;2022-09-02T01:28:00;2.13;;;0.50;;
16689;SDS011;8458;52.220;9.884;2022-09-02T01:30:30;2.10;;;0.50;;
16689;SDS011;8458;52.220;9.884;2022-09-02T01:32:58;0.30;;;0.30;;
16689;SDS011;8458;52.220;9.884;2022-09-02T01:35:25;1.23;;;0.60;;
16689;SDS011;8458;52.220;9.884;2022-09-02T01:37:53;0.33;;;0.33;;
16689;SDS011;8458;52.220;9.884;2022-09-02T01:40:23;0.43;;;0.40;;
16689;SDS011;8458;52.220;9.884;2022-09-02T01:42:52;0.37;;;0.37;;
16689;SDS011;8458;52.220;9.884;2022-09-02T01:45:21;0.97;;;0.40;;
16689;SDS011;8458;52.220;9.884;2022-09-02T01:47:47;0.67;;;0.50;;
16689;SDS011;8458;52.220;9.884;2022-09-02T01:50:14;0.57;;;0.50;;
16689;SDS011;8458;52.220;9.884;2022-09-02T01:52:40;1.03;;;0.50;;
16689;SDS011;8458;52.220;9.884;2022-09-02T01:55:07;1.50;;;0.50;;
16689;SDS011;8458;52.220;9.884;2022-09-02T01:57:35;0.87;;;0.40;;
16689;SDS011;8458;52.220;9.884;2022-09-02T02:00:03;0.37;;;0.37;;
16689;SDS011;8458;52.220;9.884;2022-09-02T02:02:30;0.40;;;0.40;;
16689;SDS011;8458;52.220;9.884;2022-09-02T02:04:57;0.40;;;0.37;;
16689;SDS011;8458;52.220;9.884;2022-09-02T02:07:23;1.20;;;0.40;;
16689;SDS011;8458;52.220;9.884;2022-09-02T02:09:50;1.23;;;0.50;;
16689;SDS011;8458;52.220;9.884;2022-09-02T02:12:17;1.50;;;0.47;;
16689;SDS011;8458;52.220;9.884;2022-09-02T02:14:45;0.90;;;0.50;;
16689;SDS011;8458;52.220;9.884;2022-09-02T02:17:12;0.60;;;0.50;;
16689;SDS011;8458;52.220;9.884;2022-09-02T02:19:40;0.93;;;0.60;;
16689;SDS011;8458;52.220;9.884;2022-09-02T02:22:07;0.53;;;0.40;;
16689;SDS011;8458;52.220;9.884;2022-09-02T02:24:35;0.63;;;0.50;;
16689;SDS011;8458;52.220;9.884;2022-09-02T02:27:02;0.50;;;0.50;;
16689;SDS011;8458;52.220;9.884;2022-09-02T02:29:29;0.50;;;0.50;;
16689;SDS011;8458;52.220;9.884;2022-09-02T02:31:57;0.90;;;0.70;;
16689;SDS011;8458;52.220;9.884;2022-09-02T02:34:24;1.30;;;0.50;;
16689;SDS011;8458;52.220;9.884;2022-09-02T02:36:53;1.53;;;0.50;;
16689;SDS011;8458;52.220;9.884;2022-09-02T02:39:20;1.27;;;0.60;;
16689;SDS011;8458;52.220;9.884;2022-09-02T02:41:46;0.70;;;0.60;;
16689;SDS011;8458;52.220;9.884;2022-09-02T02:44:13;0.70;;;0.70;;
16689;SDS011;8458;52.220;9.884;2022-09-02T02:46:39;0.60;;;0.40;;
16689;SDS011;8458;52.220;9.884;2022-09-02T02:49:07;0.60;;;0.60;;
16689;SDS011;8458;52.220;9.884;2022-09-02T02:51:35;0.70;;;0.70;;
16689;SDS011;8458;52.220;9.884;2022-09-02T02:54:02;0.80;;;0.50;;
16689;SDS011;8458;52.220;9.884;2022-09-02T02:56:30;1.03;;;0.50;;
16689;SDS011;8458;52.220;9.884;2022-09-02T02:58:57;0.77;;;0.50;;
16689;SDS011;8458;52.220;9.884;2022-09-02T03:01:27;0.97;;;0.40;;
16689;SDS011;8458;52.220;9.884;2022-09-02T03:03:54;0.50;;;0.40;;
16689;SDS011;8458;52.220;9.884;2022-09-02T03:06:22;0.70;;;0.60;;
16689;SDS011;8458;52.220;9.884;2022-09-02T03:08:49;0.90;;;0.60;;
16689;SDS011;8458;52.220;9.884;2022-09-02T03:11:17;0.50;;;0.50;;
16689;SDS011;8458;52.220;9.884;2022-09-02T03:13:46;0.50;;;0.50;;
16689;SDS011;8458;52.220;9.884;2022-09-02T03:16:13;0.60;;;0.60;;
16689;SDS011;8458;52.220;9.884;2022-09-02T03:18:40;1.53;;;0.80;;
16689;SDS011;8458;52.220;9.884;2022-09-02T03:21:07;1.10;;;0.70;;
16689;SDS011;8458;52.220;9.884;2022-09-02T03:23:35;1.03;;;0.63;;
16689;SDS011;8458;52.220;9.884;2022-09-02T03:26:02;0.60;;;0.50;;
16689;SDS011;8458;52.220;9.884;2022-09-02T03:28:35;0.73;;;0.60;;
16689;SDS011;8458;52.220;9.884;2022-09-02T03:31:01;0.97;;;0.63;;
16689;SDS011;8458;52.220;9.884;2022-09-02T03:33:28;0.70;;;0.70;;
16689;SDS011;8458;52.220;9.884;2022-09-02T03:35:54;0.70;;;0.70;;
16689;SDS011;8458;52.220;9.884;2022-09-02T03:38:21;1.93;;;0.60;;
16689;SDS011;8458;52.220;9.884;2022-09-02T03:40:49;1.07;;;0.70;;
16689;SDS011;8458;52.220;9.884;2022-09-02T03:43:15;1.23;;;0.70;;
16689;SDS011;8458;52.220;9.884;2022-09-02T03:45:42;0.93;;;0.70;;
16689;SDS011;8458;52.220;9.884;2022-09-02T03:48:10;1.03;;;0.60;;
16689;SDS011;8458;52.220;9.884;2022-09-02T03:50:38;0.63;;;0.60;;
16689;SDS011;8458;52.220;9.884;2022-09-02T03:53:07;0.60;;;0.60;;
16689;SDS011;8458;52.220;9.884;2022-09-02T03:55:36;0.93;;;0.70;;
16689;SDS011;8458;52.220;9.884;2022-09-02T03:58:04;0.50;;;0.50;;
16689;SDS011;8458;52.220;9.884;2022-09-02T04:00:31;0.80;;;0.60;;
16689;SDS011;8458;52.220;9.884;2022-09-02T04:02:57;0.50;;;0.50;;
16689;SDS011;8458;52.220;9.884;2022-09-02T04:05:25;0.60;;;0.60;;
16689;SDS011;8458;52.220;9.884;2022-09-02T04:07:52;0.53;;;0.53;;
16689;SDS011;8458;52.220;9.884;2022-09-02T04:10:19;1.17;;;0.70;;
16689;SDS011;8458;52.220;9.884;2022-09-02T04:12:46;0.60;;;0.53;;
16689;SDS011;8458;52.220;9.884;2022-09-02T04:15:14;0.70;;;0.60;;
16689;SDS011;8458;52.220;9.884;2022-09-02T04:17:41;1.73;;;0.70;;
16689;SDS011;8458;52.220;9.884;2022-09-02T04:20:10;0.60;;;0.60;;
16689;SDS011;8458;52.220;9.884;2022-09-02T04:22:37;0.67;;;0.60;;
16689;SDS011;8458;52.220;9.884;2022-09-02T04:25:05;1.17;;;0.70;;
16689;SDS011;8458;52.220;9.884;2022-09-02T04:27:33;1.23;;;0.77;;
16689;SDS011;8458;52.220;9.884;2022-09-02T04:30:00;1.70;;;1.00;;
16689;SDS011;8458;52.220;9.884;2022-09-02T04:32:29;4.20;;;1.50;;
16689;SDS011;8458;52.220;9.884;2022-09-02T04:34:56;7.70;;;1.33;;
16689;SDS011;8458;52.220;9.884;2022-09-02T04:37:22;4.67;;;1.30;;
16689;SDS011;8458;52.220;9.884;2022-09-02T04:39:49;7.10;;;1.30;;
16689;SDS011;8458;52.220;9.884;2022-09-02T04:42:16;13.50;;;2.10;;
16689;SDS011;8458;52.220;9.884;2022-09-02T04:44:43;11.33;;;2.17;;
16689;SDS011;8458;52.220;9.884;2022-09-02T04:47:10;14.80;;;1.80;;
16689;SDS011;8458;52.220;9.884;2022-09-02T04:49:38;8.20;;;1.80;;
16689;SDS011;8458;52.220;9.884;2022-09-02T04:52:07;8.57;;;1.47;;
16689;SDS011;8458;52.220;9.884;2022-09-02T04:54:34;14.33;;;1.70;;
16689;SDS011;8458;52.220;9.884;2022-09-02T04:57:01;12.07;;;1.33;;
16689;SDS011;8458;52.220;9.884;2022-09-02T04:59:27;6.00;;;1.60;;
16689;SDS011;8458;52.220;9.884;2022-09-02T05:01:54;5.77;;;1.73;;
16689;SDS011;8458;52.220;9.884;2022-09-02T05:04:21;3.70;;;1.37;;
16689;SDS011;8458;52.220;9.884;2022-09-02T05:06:49;10.30;;;1.20;;
16689;SDS011;8458;52.220;9.884;2022-09-02T05:09:17;7.70;;;1.40;;
16689;SDS011;8458;52.220;9.884;2022-09-02T05:11:44;6.03;;;1.20;;
16689;SDS011;8458;52.220;9.884;2022-09-02T05:14:12;4.33;;;1.43;;
16689;SDS011;8458;52.220;9.884;2022-09-02T05:16:40;2.63;;;1.37;;
16689;SDS011;8458;52.220;9.884;2022-09-02T05:19:08;2.73;;;1.00;;
16689;SDS011;8458;52.220;9.884;2022-09-02T05:21:37;1.30;;;1.03;;
16689;SDS011;8458;52.220;9.884;2022-09-02T05:24:06;3.17;;;1.27;;
16689;SDS011;8458;52.220;9.884;2022-09-02T05:26:33;8.00;;;1.40;;
16689;SDS011;8458;52.220;9.884;2022-09-02T05:29:00;7.83;;;1.57;;
16689;SDS011;8458;52.220;9.884;2022-09-02T05:31:27;8.83;;;1.63;;
16689;SDS011;8458;52.220;9.884;2022-09-02T05:33:55;13.73;;;2.40;;
16689;SDS011;8458;52.220;9.884;2022-09-02T05:36:21;14.57;;;2.50;;
16689;SDS011;8458;52.220;9.884;2022-09-02T05:38:48;12.03;;;1.77;;
16689;SDS011;8458;52.220;9.884;2022-09-02T05:41:17;8.93;;;1.57;;
16689;SDS011;8458;52.220;9.884;2022-09-02T05:43:47;2.40;;;0.90;;
16689;SDS011;8458;52.220;9.884;2022-09-02T05:46:15;0.93;;;0.90;;
16689;SDS011;8458;52.220;9.884;2022-09-02T05:48:44;0.97;;;0.90;;
16689;SDS011;8458;52.220;9.884;2022-09-02T05:51:30;0.90;;;0.90;;
16689;SDS011;8458;52.220;9.884;2022-09-02T05:53:58;2.60;;;1.13;;
16689;SDS011;8458;52.220;9.884;2022-09-02T05:56:27;1.60;;;1.00;;
16689;SDS011;8458;52.220;9.884;2022-09-02T05:58:54;1.37;;;0.90;;
16689;SDS011;8458;52.220;9.884;2022-09-02T06:01:21;1.67;;;1.00;;
16689;SDS011;8458;52.220;9.884;2022-09-02T06:03:48;2.57;;;1.00;;
16689;SDS011;8458;52.220;9.884;2022-09-02T06:06:16;1.60;;;1.00;;
16689;SDS011;8458;52.220;9.884;2022-09-02T06:08:43;1.73;;;1.00;;
16689;SDS011;8458;52.220;9.884;2022-09-02T06:11:10;1.13;;;0.97;;
16689;SDS011;8458;52.220;9.884;2022-09-02T06:13:40;1.23;;;1.00;;
16689;SDS011;8458;52.220;9.884;2022-09-02T06:16:07;0.97;;;0.90;;
16689;SDS011;8458;52.220;9.884;2022-09-02T06:18:38;1.00;;;0.90;;
16689;SDS011;8458;52.220;9.884;2022-09-02T06:21:05;1.10;;;0.90;;
16689;SDS011;8458;52.220;9.884;2022-09-02T06:23:32;7.03;;;1.23;;
16689;SDS011;8458;52.220;9.884;2022-09-02T06:25:59;1.50;;;1.00;;
16689;SDS011;8458;52.220;9.884;2022-09-02T06:28:26;1.30;;;1.07;;
16689;SDS011;8458;52.220;9.884;2022-09-02T06:30:54;1.47;;;1.00;;
16689;SDS011;8458;52.220;9.884;2022-09-02T06:33:20;1.47;;;1.13;;
16689;SDS011;8458;52.220;9.884;2022-09-02T06:35:47;1.60;;;1.10;;
16689;SDS011;8458;52.220;9.884;2022-09-02T06:38:14;2.00;;;1.10;;
16689;SDS011;8458;52.220;9.884;2022-09-02T06:40:47;3.10;;;1.47;;
16689;SDS011;8458;52.220;9.884;2022-09-02T06:43:15;1.47;;;1.10;;
16689;SDS011;8458;52.220;9.884;2022-09-02T06:45:42;1.73;;;0.97;;
16689;SDS011;8458;52.220;9.884;2022-09-02T06:48:10;3.07;;;1.67;;
16689;SDS011;8458;52.220;9.884;2022-09-02T06:50:38;1.70;;;0.93;;
16689;SDS011;8458;52.220;9.884;2022-09-02T06:53:05;1.83;;;0.90;;
16689;SDS011;8458;52.220;9.884;2022-09-02T06:55:33;0.90;;;0.90;;
16689;SDS011;8458;52.220;9.884;2022-09-02T06:58:01;2.43;;;1.30;;
16689;SDS011;8458;52.220;9.884;2022-09-02T07:00:28;1.23;;;0.90;;
16689;SDS011;8458;52.220;9.884;2022-09-02T07:02:55;2.17;;;1.17;;
16689;SDS011;8458;52.220;9.884;2022-09-02T07:05:37;1.47;;;0.90;;
16689;SDS011;8458;52.220;9.884;2022-09-02T07:08:04;2.20;;;1.10;;
16689;SDS011;8458;52.220;9.884;2022-09-02T07:10:31;2.53;;;1.17;;
16689;SDS011;8458;52.220;9.884;2022-09-02T07:12:57;2.00;;;1.03;;
16689;SDS011;8458;52.220;9.884;2022-09-02T07:15:24;1.90;;;0.83;;
16689;SDS011;8458;52.220;9.884;2022-09-02T07:17:50;5.57;;;1.20;;
16689;SDS011;8458;52.220;9.884;2022-09-02T07:20:18;2.83;;;1.00;;
16689;SDS011;8458;52.220;9.884;2022-09-02T07:22:46;3.10;;;1.50;;
16689;SDS011;8458;52.220;9.884;2022-09-02T07:25:13;4.07;;;1.20;;
16689;SDS011;8458;52.220;9.884;2022-09-02T07:27:41;1.17;;;0.83;;
16689;SDS011;8458;52.220;9.884;2022-09-02T07:30:08;1.00;;;0.90;;
16689;SDS011;8458;52.220;9.884;2022-09-02T07:32:36;1.67;;;1.10;;
16689;SDS011;8458;52.220;9.884;2022-09-02T07:35:03;0.90;;;0.90;;
16689;SDS011;8458;52.220;9.884;2022-09-02T07:37:31;0.87;;;0.87;;
16689;SDS011;8458;52.220;9.884;2022-09-02T07:40:00;1.17;;;0.90;;
16689;SDS011;8458;52.220;9.884;2022-09-02T07:42:26;2.50;;;0.93;;
16689;SDS011;8458;52.220;9.884;2022-09-02T07:44:53;2.30;;;0.97;;
16689;SDS011;8458;52.220;9.884;2022-09-02T07:47:19;4.07;;;0.90;;
16689;SDS011;8458;52.220;9.884;2022-09-02T07:49:46;2.03;;;1.10;;
16689;SDS011;8458;52.220;9.884;2022-09-02T07:52:12;2.07;;;1.00;;
16689;SDS011;8458;52.220;9.884;2022-09-02T07:54:39;2.40;;;0.90;;
16689;SDS011;8458;52.220;9.884;2022-09-02T07:57:07;1.10;;;0.83;;
16689;SDS011;8458;52.220;9.884;2022-09-02T07:59:33;1.07;;;0.73;;
16689;SDS011;8458;52.220;9.884;2022-09-02T08:02:00;1.90;;;0.90;;
16689;SDS011;8458;52.220;9.884;2022-09-02T08:04:26;2.10;;;0.80;;
16689;SDS011;8458;52.220;9.884;2022-09-02T08:06:53;1.53;;;0.97;;
16689;SDS011;8458;52.220;9.884;2022-09-02T08:09:20;2.83;;;1.00;;
16689;SDS011;8458;52.220;9.884;2022-09-02T08:11:48;1.90;;;0.93;;
16689;SDS011;8458;52.220;9.884;2022-09-02T08:14:18;1.53;;;0.80;;
16689;SDS011;8458;52.220;9.884;2022-09-02T08:16:48;2.60;;;1.10;;
16689;SDS011;8458;52.220;9.884;2022-09-02T08:19:15;1.87;;;1.00;;
16689;SDS011;8458;52.220;9.884;2022-09-02T08:21:41;2.60;;;0.90;;
16689;SDS011;8458;52.220;9.884;2022-09-02T08:24:08;1.77;;;0.80;;
16689;SDS011;8458;52.220;9.884;2022-09-02T08:26:35;1.77;;;0.80;;
16689;SDS011;8458;52.220;9.884;2022-09-02T08:29:01;2.10;;;1.00;;
16689;SDS011;8458;52.220;9.884;2022-09-02T08:31:30;0.90;;;0.60;;
16689;SDS011;8458;52.220;9.884;2022-09-02T08:33:57;1.37;;;0.70;;
16689;SDS011;8458;52.220;9.884;2022-09-02T08:36:23;2.40;;;1.00;;
16689;SDS011;8458;52.220;9.884;2022-09-02T08:38:52;2.40;;;0.80;;
16689;SDS011;8458;52.220;9.884;2022-09-02T08:41:20;0.90;;;0.50;;
16689;SDS011;8458;52.220;9.884;2022-09-02T08:43:48;1.60;;;0.50;;
16689;SDS011;8458;52.220;9.884;2022-09-02T08:46:17;1.33;;;0.57;;
16689;SDS011;8458;52.220;9.884;2022-09-02T08:48:51;1.37;;;0.70;;
16689;SDS011;8458;52.220;9.884;2022-09-02T08:51:24;1.17;;;0.57;;
16689;SDS011;8458;52.220;9.884;2022-09-02T08:53:56;0.83;;;0.50;;
16689;SDS011;8458;52.220;9.884;2022-09-02T08:56:25;0.67;;;0.57;;
16689;SDS011;8458;52.220;9.884;2022-09-02T08:58:53;0.80;;;0.43;;
16689;SDS011;8458;52.220;9.884;2022-09-02T09:01:24;0.47;;;0.40;;
16689;SDS011;8458;52.220;9.884;2022-09-02T09:04:02;0.63;;;0.50;;
16689;SDS011;8458;52.220;9.884;2022-09-02T09:06:37;0.87;;;0.40;;
16689;SDS011;8458;52.220;9.884;2022-09-02T09:09:15;0.73;;;0.70;;
16689;SDS011;8458;52.220;9.884;2022-09-02T09:11:54;1.13;;;0.70;;
16689;SDS011;8458;52.220;9.884;2022-09-02T09:14:28;0.57;;;0.57;;
16689;SDS011;8458;52.220;9.884;2022-09-02T09:17:07;0.73;;;0.50;;
16689;SDS011;8458;52.220;9.884;2022-09-02T09:19:47;2.80;;;0.60;;
16689;SDS011;8458;52.220;9.884;2022-09-02T09:22:17;0.40;;;0.40;;
16689;SDS011;8458;52.220;9.884;2022-09-02T09:24:45;0.57;;;0.50;;
16689;SDS011;8458;52.220;9.884;2022-09-02T09:27:14;1.37;;;0.50;;
16689;SDS011;8458;52.220;9.884;2022-09-02T09:29:43;0.50;;;0.50;;
16689;SDS011;8458;52.220;9.884;2022-09-02T09:32:11;0.73;;;0.50;;
16689;SDS011;8458;52.220;9.884;2022-09-02T09:37:33;2.03;;;0.50;;
16689;SDS011;8458;52.220;9.884;2022-09-02T09:40:21;1.27;;;0.40;;
16689;SDS011;8458;52.220;9.884;2022-09-02T09:42:52;0.63;;;0.40;;
16689;SDS011;8458;52.220;9.884;2022-09-02T09:45:25;0.40;;;0.40;;
16689;SDS011;8458;52.220;9.884;2022-09-02T09:48:07;1.23;;;0.50;;
16689;SDS011;8458;52.220;9.884;2022-09-02T09:50:43;1.20;;;0.60;;
16689;SDS011;8458;52.220;9.884;2022-09-02T09:53:14;1.10;;;0.40;;
16689;SDS011;8458;52.220;9.884;2022-09-02T09:55:52;0.40;;;0.40;;
16689;SDS011;8458;52.220;9.884;2022-09-02T09:58:20;0.40;;;0.30;;
16689;SDS011;8458;52.220;9.884;2022-09-02T10:00:49;0.97;;;0.50;;
16689;SDS011;8458;52.220;9.884;2022-09-02T10:03:21;0.60;;;0.50;;
16689;SDS011;8458;52.220;9.884;2022-09-02T10:05:53;0.90;;;0.43;;
16689;SDS011;8458;52.220;9.884;2022-09-02T10:08:22;1.03;;;0.60;;
16689;SDS011;8458;52.220;9.884;2022-09-02T10:10:57;0.50;;;0.40;;
16689;SDS011;8458;52.220;9.884;2022-09-02T10:13:27;1.03;;;0.53;;
16689;SDS011;8458;52.220;9.884;2022-09-02T10:16:01;0.90;;;0.40;;
16689;SDS011;8458;52.220;9.884;2022-09-02T10:18:43;0.50;;;0.40;;
16689;SDS011;8458;52.220;9.884;2022-09-02T10:21:19;0.87;;;0.77;;
16689;SDS011;8458;52.220;9.884;2022-09-02T10:24:02;0.53;;;0.47;;
16689;SDS011;8458;52.220;9.884;2022-09-02T10:26:33;0.53;;;0.50;;
16689;SDS011;8458;52.220;9.884;2022-09-02T10:31:59;1.07;;;0.50;;
16689;SDS011;8458;52.220;9.884;2022-09-02T10:34:45;0.83;;;0.60;;
16689;SDS011;8458;52.220;9.884;2022-09-02T10:37:22;0.83;;;0.60;;
16689;SDS011;8458;52.220;9.884;2022-09-02T10:39:57;0.90;;;0.60;;
16689;SDS011;8458;52.220;9.884;2022-09-02T10:42:34;1.23;;;0.70;;
16689;SDS011;8458;52.220;9.884;2022-09-02T10:45:22;1.37;;;0.50;;
16689;SDS011;8458;52.220;9.884;2022-09-02T10:47:52;0.50;;;0.40;;
16689;SDS011;8458;52.220;9.884;2022-09-02T10:50:32;0.83;;;0.60;;
16689;SDS011;8458;52.220;9.884;2022-09-02T10:53:09;0.63;;;0.40;;
16689;SDS011;8458;52.220;9.884;2022-09-02T10:55:57;0.40;;;0.33;;
16689;SDS011;8458;52.220;9.884;2022-09-02T10:58:31;0.57;;;0.40;;
16689;SDS011;8458;52.220;9.884;2022-09-02T11:01:04;0.47;;;0.47;;
16689;SDS011;8458;52.220;9.884;2022-09-02T11:03:36;1.40;;;0.40;;
16689;SDS011;8458;52.220;9.884;2022-09-02T11:06:07;0.97;;;0.50;;
16689;SDS011;8458;52.220;9.884;2022-09-02T11:08:40;1.40;;;0.50;;
16689;SDS011;8458;52.220;9.884;2022-09-02T11:11:12;0.67;;;0.40;;
16689;SDS011;8458;52.220;9.884;2022-09-02T11:13:49;0.43;;;0.40;;
16689;SDS011;8458;52.220;9.884;2022-09-02T11:16:24;0.60;;;0.40;;
16689;SDS011;8458;52.220;9.884;2022-09-02T11:18:58;1.00;;;0.30;;
16689;SDS011;8458;52.220;9.884;2022-09-02T11:21:34;0.70;;;0.50;;
16689;SDS011;8458;52.220;9.884;2022-09-02T11:24:09;1.07;;;0.47;;
16689;SDS011;8458;52.220;9.884;2022-09-02T11:26:41;0.50;;;0.33;;
16689;SDS011;8458;52.220;9.884;2022-09-02T11:29:15;0.37;;;0.33;;
16689;SDS011;8458;52.220;9.884;2022-09-02T11:31:47;0.87;;;0.50;;
16689;SDS011;8458;52.220;9.884;2022-09-02T11:34:25;0.50;;;0.40;;
16689;SDS011;8458;52.220;9.884;2022-09-02T11:37:00;1.60;;;0.60;;
16689;SDS011;8458;52.220;9.884;2022-09-02T11:39:31;0.50;;;0.43;;
16689;SDS011;8458;52.220;9.884;2022-09-02T11:42:08;2.20;;;0.60;;
16689;SDS011;8458;52.220;9.884;2022-09-02T11:44:52;2.67;;;0.70;;
16689;SDS011;8458;52.220;9.884;2022-09-02T11:47:37;0.50;;;0.30;;
16689;SDS011;8458;52.220;9.884;2022-09-02T11:50:26;2.20;;;0.60;;
16689;SDS011;8458;52.220;9.884;2022-09-02T11:53:05;0.53;;;0.47;;
16689;SDS011;8458;52.220;9.884;2022-09-02T11:55:45;0.80;;;0.50;;
16689;SDS011;8458;52.220;9.884;2022-09-02T11:58:28;0.50;;;0.40;;
16689;SDS011;8458;52.220;9.884;2022-09-02T12:01:03;0.70;;;0.30;;
16689;SDS011;8458;52.220;9.884;2022-09-02T12:03:48;1.90;;;0.50;;
16689;SDS011;8458;52.220;9.884;2022-09-02T12:06:19;0.50;;;0.50;;
16689;SDS011;8458;52.220;9.884;2022-09-02T12:11:42;1.17;;;0.50;;
16689;SDS011;8458;52.220;9.884;2022-09-02T12:17:37;1.23;;;0.40;;
16689;SDS011;8458;52.220;9.884;2022-09-02T12:20:06;1.70;;;0.40;;
16689;SDS011;8458;52.220;9.884;2022-09-02T12:22:34;1.47;;;0.53;;
16689;SDS011;8458;52.220;9.884;2022-09-02T12:25:32;1.00;;;0.50;;
16689;SDS011;8458;52.220;9.884;2022-09-02T12:28:20;0.70;;;0.40;;
16689;SDS011;8458;52.220;9.884;2022-09-02T12:33:37;1.00;;;0.50;;
16689;SDS011;8458;52.220;9.884;2022-09-02T12:36:05;0.40;;;0.40;;
16689;SDS011;8458;52.220;9.884;2022-09-02T12:38:33;0.70;;;0.60;;
16689;SDS011;8458;52.220;9.884;2022-09-02T12:44:00;1.20;;;0.50;;
16689;SDS011;8458;52.220;9.884;2022-09-02T12:46:44;1.33;;;0.60;;
16689;SDS011;8458;52.220;9.884;2022-09-02T12:49:24;0.50;;;0.50;;
16689;SDS011;8458;52.220;9.884;2022-09-02T12:51:59;0.50;;;0.50;;
16689;SDS011;8458;52.220;9.884;2022-09-02T12:54:30;0.53;;;0.50;;
16689;SDS011;8458;52.220;9.884;2022-09-02T12:57:02;1.07;;;0.60;;
16689;SDS011;8458;52.220;9.884;2022-09-02T12:59:30;0.53;;;0.47;;
16689;SDS011;8458;52.220;9.884;2022-09-02T13:02:09;1.10;;;0.60;;
16689;SDS011;8458;52.220;9.884;2022-09-02T13:04:56;0.70;;;0.60;;
16689;SDS011;8458;52.220;9.884;2022-09-02T13:07:44;1.30;;;0.70;;
16689;SDS011;8458;52.220;9.884;2022-09-02T13:10:27;1.83;;;0.67;;
16689;SDS011;8458;52.220;9.884;2022-09-02T13:16:35;0.73;;;0.60;;
16689;SDS011;8458;52.220;9.884;2022-09-02T13:22:21;0.90;;;0.63;;
16689;SDS011;8458;52.220;9.884;2022-09-02T13:28:28;0.70;;;0.50;;
16689;SDS011;8458;52.220;9.884;2022-09-02T13:31:16;0.87;;;0.40;;
16689;SDS011;8458;52.220;9.884;2022-09-02T13:33:57;0.93;;;0.40;;
16689;SDS011;8458;52.220;9.884;2022-09-02T13:36:26;0.90;;;0.67;;
16689;SDS011;8458;52.220;9.884;2022-09-02T13:38:54;0.53;;;0.50;;
16689;SDS011;8458;52.220;9.884;2022-09-02T13:41:28;2.23;;;0.40;;
16689;SDS011;8458;52.220;9.884;2022-09-02T13:44:05;0.93;;;0.50;;
16689;SDS011;8458;52.220;9.884;2022-09-02T13:46:33;0.50;;;0.43;;
16689;SDS011;8458;52.220;9.884;2022-09-02T13:49:08;1.03;;;0.40;;
16689;SDS011;8458;52.220;9.884;2022-09-02T13:51:44;0.83;;;0.60;;
16689;SDS011;8458;52.220;9.884;2022-09-02T13:54:11;0.60;;;0.43;;
16689;SDS011;8458;52.220;9.884;2022-09-02T13:56:39;0.77;;;0.43;;
16689;SDS011;8458;52.220;9.884;2022-09-02T13:59:06;4.97;;;0.60;;
16689;SDS011;8458;52.220;9.884;2022-09-02T14:01:33;0.60;;;0.60;;
16689;SDS011;8458;52.220;9.884;2022-09-02T14:04:02;0.70;;;0.43;;
16689;SDS011;8458;52.220;9.884;2022-09-02T14:06:32;0.97;;;0.50;;
16689;SDS011;8458;52.220;9.884;2022-09-02T14:09:01;0.67;;;0.50;;
16689;SDS011;8458;52.220;9.884;2022-09-02T14:11:32;1.27;;;0.60;;
16689;SDS011;8458;52.220;9.884;2022-09-02T14:14:03;0.73;;;0.60;;
16689;SDS011;8458;52.220;9.884;2022-09-02T14:16:31;0.83;;;0.50;;
16689;SDS011;8458;52.220;9.884;2022-09-02T14:19:02;0.40;;;0.37;;
16689;SDS011;8458;52.220;9.884;2022-09-02T14:21:32;1.03;;;0.50;;
16689;SDS011;8458;52.220;9.884;2022-09-02T14:24:00;0.97;;;0.57;;
16689;SDS011;8458;52.220;9.884;2022-09-02T14:26:30;2.33;;;0.60;;
16689;SDS011;8458;52.220;9.884;2022-09-02T14:29:00;1.90;;;0.43;;
16689;SDS011;8458;52.220;9.884;2022-09-02T14:31:27;0.77;;;0.40;;
16689;SDS011;8458;52.220;9.884;2022-09-02T14:33:58;0.87;;;0.43;;
16689;SDS011;8458;52.220;9.884;2022-09-02T14:36:31;0.67;;;0.43;;
16689;SDS011;8458;52.220;9.884;2022-09-02T14:41:45;0.60;;;0.47;;
16689;SDS011;8458;52.220;9.884;2022-09-02T14:44:15;1.10;;;0.50;;
16689;SDS011;8458;52.220;9.884;2022-09-02T14:46:47;0.80;;;0.50;;
16689;SDS011;8458;52.220;9.884;2022-09-02T14:49:19;1.60;;;0.40;;
16689;SDS011;8458;52.220;9.884;2022-09-02T14:51:51;1.37;;;0.40;;
16689;SDS011;8458;52.220;9.884;2022-09-02T14:54:35;0.90;;;0.40;;
16689;SDS011;8458;52.220;9.884;2022-09-02T14:57:03;0.80;;;0.40;;
16689;SDS011;8458;52.220;9.884;2022-09-02T14:59:31;0.50;;;0.33;;
16689;SDS011;8458;52.220;9.884;2022-09-02T15:01:58;0.43;;;0.43;;
16689;SDS011;8458;52.220;9.884;2022-09-02T15:04:25;2.20;;;0.50;;
16689;SDS011;8458;52.220;9.884;2022-09-02T15:06:52;1.03;;;0.43;;
16689;SDS011;8458;52.220;9.884;2022-09-02T15:09:20;0.97;;;0.47;;
16689;SDS011;8458;52.220;9.884;2022-09-02T15:11:48;1.40;;;0.53;;
16689;SDS011;8458;52.220;9.884;2022-09-02T15:14:18;0.43;;;0.40;;
16689;SDS011;8458;52.220;9.884;2022-09-02T15:16:46;0.50;;;0.30;;
16689;SDS011;8458;52.220;9.884;2022-09-02T15:19:13;2.30;;;0.40;;
16689;SDS011;8458;52.220;9.884;2022-09-02T15:21:39;0.80;;;0.40;;
16689;SDS011;8458;52.220;9.884;2022-09-02T15:24:07;1.67;;;0.30;;
16689;SDS011;8458;52.220;9.884;2022-09-02T15:26:33;1.93;;;0.50;;
16689;SDS011;8458;52.220;9.884;2022-09-02T15:29:00;0.73;;;0.30;;
16689;SDS011;8458;52.220;9.884;2022-09-02T15:31:27;0.53;;;0.30;;
16689;SDS011;8458;52.220;9.884;2022-09-02T15:33:54;0.50;;;0.30;;
16689;SDS011;8458;52.220;9.884;2022-09-02T15:36:20;0.90;;;0.40;;
16689;SDS011;8458;52.220;9.884;2022-09-02T15:38:48;0.87;;;0.40;;
16689;SDS011;8458;52.220;9.884;2022-09-02T15:41:16;0.30;;;0.30;;
16689;SDS011;8458;52.220;9.884;2022-09-02T15:43:44;0.43;;;0.33;;
16689;SDS011;8458;52.220;9.884;2022-09-02T15:46:15;1.60;;;0.40;;
16689;SDS011;8458;52.220;9.884;2022-09-02T15:48:43;2.20;;;0.60;;